sensor_id;sensor_type;location;lat;lon;timestamp;P1;durP1;ratioP1;P2;durP2;ratioP2
3433;SDS011;1730;41.932;25.548;2023-02-28T00:00:05;36.87;;;17.17;;
3433;SDS011;1730;41.932;25.548;2023-02-28T00:02:40;43.63;;;15.70;;
3433;SDS011;1730;41.932;25.548;2023-02-28T00:05:07;29.40;;;12.83;;
3433;SDS011;1730;41.932;25.548;2023-02-28T00:07:34;32.13;;;12.50;;
3433;SDS011;1730;41.932;25.548;2023-02-28T00:10:00;30.23;;;11.90;;
3433;SDS011;1730;41.932;25.548;2023-02-28T00:12:25;32.93;;;12.97;;
3433;SDS011;1730;41.932;25.548;2023-02-28T00:14:52;42.73;;;13.07;;
3433;SDS011;1730;41.932;25.548;2023-02-28T00:17:18;23.13;;;11.37;;
3433;SDS011;1730;41.932;25.548;2023-02-28T00:19:49;29.77;;;11.90;;
3433;SDS011;1730;41.932;25.548;2023-02-28T00:22:16;25.13;;;11.23;;
3433;SDS011;1730;41.932;25.548;2023-02-28T00:24:43;42.27;;;14.67;;
3433;SDS011;1730;41.932;25.548;2023-02-28T00:27:09;34.50;;;12.77;;
3433;SDS011;1730;41.932;25.548;2023-02-28T00:29:35;35.20;;;12.57;;
3433;SDS011;1730;41.932;25.548;2023-02-28T00:32:00;24.10;;;10.63;;
3433;SDS011;1730;41.932;25.548;2023-02-28T00:34:26;22.60;;;9.90;;
3433;SDS011;1730;41.932;25.548;2023-02-28T00:36:51;22.17;;;13.53;;
3433;SDS011;1730;41.932;25.548;2023-02-28T00:39:17;25.70;;;12.83;;
3433;SDS011;1730;41.932;25.548;2023-02-28T00:41:43;25.80;;;12.27;;
3433;SDS011;1730;41.932;25.548;2023-02-28T00:44:08;21.80;;;11.33;;
3433;SDS011;1730;41.932;25.548;2023-02-28T00:46:34;27.37;;;11.90;;
3433;SDS011;1730;41.932;25.548;2023-02-28T00:48:59;26.90;;;12.17;;
3433;SDS011;1730;41.932;25.548;2023-02-28T00:51:25;23.30;;;11.33;;
3433;SDS011;1730;41.932;25.548;2023-02-28T00:53:50;26.07;;;12.70;;
3433;SDS011;1730;41.932;25.548;2023-02-28T00:56:16;25.77;;;11.20;;
3433;SDS011;1730;41.932;25.548;2023-02-28T00:58:41;34.63;;;12.57;;
3433;SDS011;1730;41.932;25.548;2023-02-28T01:01:07;23.90;;;12.20;;
3433;SDS011;1730;41.932;25.548;2023-02-28T01:03:33;24.47;;;13.20;;
3433;SDS011;1730;41.932;25.548;2023-02-28T01:05:59;32.10;;;17.63;;
3433;SDS011;1730;41.932;25.548;2023-02-28T01:08:24;38.70;;;16.23;;
3433;SDS011;1730;41.932;25.548;2023-02-28T01:10:51;26.10;;;16.00;;
3433;SDS011;1730;41.932;25.548;2023-02-28T01:13:17;27.57;;;16.27;;
3433;SDS011;1730;41.932;25.548;2023-02-28T01:15:49;43.83;;;15.37;;
3433;SDS011;1730;41.932;25.548;2023-02-28T01:18:17;36.93;;;14.83;;
3433;SDS011;1730;41.932;25.548;2023-02-28T01:20:43;39.23;;;16.00;;
3433;SDS011;1730;41.932;25.548;2023-02-28T01:23:09;46.27;;;16.43;;
3433;SDS011;1730;41.932;25.548;2023-02-28T01:25:35;33.23;;;15.30;;
3433;SDS011;1730;41.932;25.548;2023-02-28T01:28:01;31.63;;;14.83;;
3433;SDS011;1730;41.932;25.548;2023-02-28T01:30:27;25.73;;;13.83;;
3433;SDS011;1730;41.932;25.548;2023-02-28T01:32:52;24.73;;;14.33;;
3433;SDS011;1730;41.932;25.548;2023-02-28T01:35:18;33.23;;;17.00;;
3433;SDS011;1730;41.932;25.548;2023-02-28T01:37:44;33.40;;;15.30;;
3433;SDS011;1730;41.932;25.548;2023-02-28T01:40:10;31.00;;;16.10;;
3433;SDS011;1730;41.932;25.548;2023-02-28T01:42:36;30.10;;;15.20;;
3433;SDS011;1730;41.932;25.548;2023-02-28T01:47:45;28.27;;;14.10;;
3433;SDS011;1730;41.932;25.548;2023-02-28T01:50:14;33.37;;;16.30;;
3433;SDS011;1730;41.932;25.548;2023-02-28T01:52:44;33.60;;;14.90;;
3433;SDS011;1730;41.932;25.548;2023-02-28T01:55:11;25.57;;;14.63;;
3433;SDS011;1730;41.932;25.548;2023-02-28T01:57:39;41.87;;;15.90;;
3433;SDS011;1730;41.932;25.548;2023-02-28T02:00:11;29.93;;;16.17;;
3433;SDS011;1730;41.932;25.548;2023-02-28T02:02:43;36.70;;;16.67;;
3433;SDS011;1730;41.932;25.548;2023-02-28T02:05:15;39.03;;;14.80;;
3433;SDS011;1730;41.932;25.548;2023-02-28T02:07:50;34.10;;;15.53;;
3433;SDS011;1730;41.932;25.548;2023-02-28T02:11:01;38.13;;;15.60;;
3433;SDS011;1730;41.932;25.548;2023-02-28T02:21:55;38.47;;;14.67;;
3433;SDS011;1730;41.932;25.548;2023-02-28T02:24:43;36.80;;;16.13;;
3433;SDS011;1730;41.932;25.548;2023-02-28T02:33:30;25.53;;;13.30;;
3433;SDS011;1730;41.932;25.548;2023-02-28T02:36:26;24.93;;;13.60;;
3433;SDS011;1730;41.932;25.548;2023-02-28T02:39:06;22.40;;;13.30;;
3433;SDS011;1730;41.932;25.548;2023-02-28T02:41:41;27.17;;;14.17;;
3433;SDS011;1730;41.932;25.548;2023-02-28T02:44:20;19.77;;;12.87;;
3433;SDS011;1730;41.932;25.548;2023-02-28T02:46:47;32.00;;;14.90;;
3433;SDS011;1730;41.932;25.548;2023-02-28T02:49:26;19.90;;;13.97;;
3433;SDS011;1730;41.932;25.548;2023-02-28T02:51:55;28.87;;;12.63;;
3433;SDS011;1730;41.932;25.548;2023-02-28T02:54:29;20.73;;;12.07;;
3433;SDS011;1730;41.932;25.548;2023-02-28T02:57:00;29.20;;;12.50;;
3433;SDS011;1730;41.932;25.548;2023-02-28T02:59:30;21.17;;;10.60;;
3433;SDS011;1730;41.932;25.548;2023-02-28T03:01:59;19.17;;;9.60;;
3433;SDS011;1730;41.932;25.548;2023-02-28T03:04:30;14.80;;;8.87;;
3433;SDS011;1730;41.932;25.548;2023-02-28T03:06:59;18.63;;;7.83;;
3433;SDS011;1730;41.932;25.548;2023-02-28T03:09:25;14.77;;;8.40;;
3433;SDS011;1730;41.932;25.548;2023-02-28T03:11:52;14.13;;;8.70;;
3433;SDS011;1730;41.932;25.548;2023-02-28T03:16:53;14.40;;;7.77;;
3433;SDS011;1730;41.932;25.548;2023-02-28T03:22:57;9.00;;;7.67;;
3433;SDS011;1730;41.932;25.548;2023-02-28T03:27:48;8.43;;;6.20;;
3433;SDS011;1730;41.932;25.548;2023-02-28T03:33:01;13.83;;;7.00;;
3433;SDS011;1730;41.932;25.548;2023-02-28T03:35:32;7.37;;;6.67;;
3433;SDS011;1730;41.932;25.548;2023-02-28T03:38:13;9.63;;;6.43;;
3433;SDS011;1730;41.932;25.548;2023-02-28T03:40:46;7.83;;;6.20;;
3433;SDS011;1730;41.932;25.548;2023-02-28T03:43:18;17.50;;;6.40;;
3433;SDS011;1730;41.932;25.548;2023-02-28T03:45:49;18.47;;;6.70;;
3433;SDS011;1730;41.932;25.548;2023-02-28T03:48:18;10.30;;;6.10;;
3433;SDS011;1730;41.932;25.548;2023-02-28T03:50:49;6.03;;;5.53;;
3433;SDS011;1730;41.932;25.548;2023-02-28T03:53:25;11.00;;;6.50;;
3433;SDS011;1730;41.932;25.548;2023-02-28T03:55:56;7.57;;;6.33;;
3433;SDS011;1730;41.932;25.548;2023-02-28T03:58:29;7.40;;;6.17;;
3433;SDS011;1730;41.932;25.548;2023-02-28T04:01:08;9.87;;;5.87;;
3433;SDS011;1730;41.932;25.548;2023-02-28T04:03:38;11.17;;;6.53;;
3433;SDS011;1730;41.932;25.548;2023-02-28T04:06:05;13.57;;;6.17;;
3433;SDS011;1730;41.932;25.548;2023-02-28T04:08:34;11.90;;;6.70;;
3433;SDS011;1730;41.932;25.548;2023-02-28T04:11:04;11.70;;;5.57;;
3433;SDS011;1730;41.932;25.548;2023-02-28T04:13:40;10.03;;;7.07;;
3433;SDS011;1730;41.932;25.548;2023-02-28T04:16:08;8.83;;;5.73;;
3433;SDS011;1730;41.932;25.548;2023-02-28T04:18:40;8.67;;;6.00;;
3433;SDS011;1730;41.932;25.548;2023-02-28T04:21:08;7.40;;;6.60;;
3433;SDS011;1730;41.932;25.548;2023-02-28T04:23:35;14.57;;;7.13;;
3433;SDS011;1730;41.932;25.548;2023-02-28T04:26:00;10.87;;;6.97;;
3433;SDS011;1730;41.932;25.548;2023-02-28T04:28:26;13.73;;;8.00;;
3433;SDS011;1730;41.932;25.548;2023-02-28T04:30:55;21.50;;;9.90;;
3433;SDS011;1730;41.932;25.548;2023-02-28T04:33:22;14.17;;;10.23;;
3433;SDS011;1730;41.932;25.548;2023-02-28T04:35:48;16.90;;;11.73;;
3433;SDS011;1730;41.932;25.548;2023-02-28T04:38:13;16.97;;;11.17;;
3433;SDS011;1730;41.932;25.548;2023-02-28T04:40:39;21.47;;;11.43;;
3433;SDS011;1730;41.932;25.548;2023-02-28T04:43:04;17.23;;;10.70;;
3433;SDS011;1730;41.932;25.548;2023-02-28T04:45:30;12.40;;;9.30;;
3433;SDS011;1730;41.932;25.548;2023-02-28T04:47:57;15.77;;;9.90;;
3433;SDS011;1730;41.932;25.548;2023-02-28T04:50:23;22.30;;;10.40;;
3433;SDS011;1730;41.932;25.548;2023-02-28T04:52:49;17.37;;;10.47;;
3433;SDS011;1730;41.932;25.548;2023-02-28T04:55:14;19.97;;;9.20;;
3433;SDS011;1730;41.932;25.548;2023-02-28T04:57:40;28.13;;;10.43;;
3433;SDS011;1730;41.932;25.548;2023-02-28T05:00:08;19.97;;;10.10;;
3433;SDS011;1730;41.932;25.548;2023-02-28T05:02:36;20.90;;;9.63;;
3433;SDS011;1730;41.932;25.548;2023-02-28T05:05:03;26.00;;;10.20;;
3433;SDS011;1730;41.932;25.548;2023-02-28T05:07:29;19.30;;;10.57;;
3433;SDS011;1730;41.932;25.548;2023-02-28T05:09:54;24.70;;;11.33;;
3433;SDS011;1730;41.932;25.548;2023-02-28T05:12:20;18.03;;;11.73;;
3433;SDS011;1730;41.932;25.548;2023-02-28T05:14:45;16.23;;;11.37;;
3433;SDS011;1730;41.932;25.548;2023-02-28T05:17:11;25.17;;;12.40;;
3433;SDS011;1730;41.932;25.548;2023-02-28T05:19:36;23.83;;;11.70;;
3433;SDS011;1730;41.932;25.548;2023-02-28T05:22:02;17.10;;;11.80;;
3433;SDS011;1730;41.932;25.548;2023-02-28T05:24:27;16.57;;;11.40;;
3433;SDS011;1730;41.932;25.548;2023-02-28T05:26:53;18.97;;;10.80;;
3433;SDS011;1730;41.932;25.548;2023-02-28T05:29:19;15.30;;;11.47;;
3433;SDS011;1730;41.932;25.548;2023-02-28T05:31:45;17.93;;;12.27;;
3433;SDS011;1730;41.932;25.548;2023-02-28T05:34:11;26.90;;;12.90;;
3433;SDS011;1730;41.932;25.548;2023-02-28T05:36:38;18.63;;;11.00;;
3433;SDS011;1730;41.932;25.548;2023-02-28T05:39:07;16.20;;;11.90;;
3433;SDS011;1730;41.932;25.548;2023-02-28T05:41:38;32.27;;;11.53;;
3433;SDS011;1730;41.932;25.548;2023-02-28T05:44:04;24.23;;;11.67;;
3433;SDS011;1730;41.932;25.548;2023-02-28T05:46:30;20.30;;;12.83;;
3433;SDS011;1730;41.932;25.548;2023-02-28T05:48:55;14.63;;;11.93;;
3433;SDS011;1730;41.932;25.548;2023-02-28T05:51:22;18.73;;;11.97;;
3433;SDS011;1730;41.932;25.548;2023-02-28T05:53:48;21.10;;;11.30;;
3433;SDS011;1730;41.932;25.548;2023-02-28T05:56:14;20.67;;;11.00;;
3433;SDS011;1730;41.932;25.548;2023-02-28T05:58:40;12.83;;;11.50;;
3433;SDS011;1730;41.932;25.548;2023-02-28T06:01:50;17.23;;;11.73;;
3433;SDS011;1730;41.932;25.548;2023-02-28T06:03:58;13.03;;;11.70;;
3433;SDS011;1730;41.932;25.548;2023-02-28T06:06:24;13.17;;;10.13;;
3433;SDS011;1730;41.932;25.548;2023-02-28T06:08:49;13.90;;;11.37;;
3433;SDS011;1730;41.932;25.548;2023-02-28T06:11:15;17.30;;;12.20;;
3433;SDS011;1730;41.932;25.548;2023-02-28T06:13:40;18.80;;;13.27;;
3433;SDS011;1730;41.932;25.548;2023-02-28T06:16:07;23.30;;;13.03;;
3433;SDS011;1730;41.932;25.548;2023-02-28T06:18:35;16.37;;;12.27;;
3433;SDS011;1730;41.932;25.548;2023-02-28T06:21:01;18.50;;;12.70;;
3433;SDS011;1730;41.932;25.548;2023-02-28T06:23:26;18.20;;;13.87;;
3433;SDS011;1730;41.932;25.548;2023-02-28T06:25:52;20.60;;;13.47;;
3433;SDS011;1730;41.932;25.548;2023-02-28T06:28:18;21.90;;;13.30;;
3433;SDS011;1730;41.932;25.548;2023-02-28T06:30:44;27.13;;;14.70;;
3433;SDS011;1730;41.932;25.548;2023-02-28T06:33:09;19.53;;;13.70;;
3433;SDS011;1730;41.932;25.548;2023-02-28T06:35:35;23.27;;;14.13;;
3433;SDS011;1730;41.932;25.548;2023-02-28T06:38:00;17.07;;;13.50;;
3433;SDS011;1730;41.932;25.548;2023-02-28T06:40:26;13.90;;;11.40;;
3433;SDS011;1730;41.932;25.548;2023-02-28T06:42:51;20.07;;;12.27;;
3433;SDS011;1730;41.932;25.548;2023-02-28T06:45:17;17.70;;;12.17;;
3433;SDS011;1730;41.932;25.548;2023-02-28T06:47:42;18.63;;;14.00;;
3433;SDS011;1730;41.932;25.548;2023-02-28T06:50:09;18.60;;;15.37;;
3433;SDS011;1730;41.932;25.548;2023-02-28T06:52:37;23.80;;;17.10;;
3433;SDS011;1730;41.932;25.548;2023-02-28T06:55:04;25.90;;;16.10;;
3433;SDS011;1730;41.932;25.548;2023-02-28T06:57:30;29.30;;;15.00;;
3433;SDS011;1730;41.932;25.548;2023-02-28T07:00:01;28.97;;;17.90;;
3433;SDS011;1730;41.932;25.548;2023-02-28T07:02:35;29.50;;;17.30;;
3433;SDS011;1730;41.932;25.548;2023-02-28T07:05:01;30.63;;;19.87;;
3433;SDS011;1730;41.932;25.548;2023-02-28T07:07:27;32.53;;;19.17;;
3433;SDS011;1730;41.932;25.548;2023-02-28T07:09:52;30.63;;;19.73;;
3433;SDS011;1730;41.932;25.548;2023-02-28T07:12:18;31.20;;;19.03;;
3433;SDS011;1730;41.932;25.548;2023-02-28T07:14:43;29.03;;;19.13;;
3433;SDS011;1730;41.932;25.548;2023-02-28T07:17:09;38.10;;;20.20;;
3433;SDS011;1730;41.932;25.548;2023-02-28T07:19:37;36.10;;;21.50;;
3433;SDS011;1730;41.932;25.548;2023-02-28T07:22:04;29.60;;;20.93;;
3433;SDS011;1730;41.932;25.548;2023-02-28T07:24:29;28.53;;;19.73;;
3433;SDS011;1730;41.932;25.548;2023-02-28T07:26:55;38.83;;;24.07;;
3433;SDS011;1730;41.932;25.548;2023-02-28T07:29:21;37.40;;;24.50;;
3433;SDS011;1730;41.932;25.548;2023-02-28T07:31:47;40.63;;;26.60;;
3433;SDS011;1730;41.932;25.548;2023-02-28T07:34:13;44.97;;;27.53;;
3433;SDS011;1730;41.932;25.548;2023-02-28T07:36:39;46.87;;;27.10;;
3433;SDS011;1730;41.932;25.548;2023-02-28T07:39:04;37.93;;;23.93;;
3433;SDS011;1730;41.932;25.548;2023-02-28T07:41:30;33.80;;;24.40;;
3433;SDS011;1730;41.932;25.548;2023-02-28T07:43:58;29.90;;;21.90;;
3433;SDS011;1730;41.932;25.548;2023-02-28T07:46:24;40.27;;;24.70;;
3433;SDS011;1730;41.932;25.548;2023-02-28T07:48:51;41.37;;;25.70;;
3433;SDS011;1730;41.932;25.548;2023-02-28T07:51:18;38.33;;;25.60;;
3433;SDS011;1730;41.932;25.548;2023-02-28T07:53:43;31.50;;;23.33;;
3433;SDS011;1730;41.932;25.548;2023-02-28T07:56:09;34.53;;;23.13;;
3433;SDS011;1730;41.932;25.548;2023-02-28T07:58:36;31.00;;;22.57;;
3433;SDS011;1730;41.932;25.548;2023-02-28T08:01:05;41.10;;;21.63;;
3433;SDS011;1730;41.932;25.548;2023-02-28T08:03:32;35.57;;;24.40;;
3433;SDS011;1730;41.932;25.548;2023-02-28T08:05:57;39.93;;;26.10;;
3433;SDS011;1730;41.932;25.548;2023-02-28T08:08:23;47.33;;;29.50;;
3433;SDS011;1730;41.932;25.548;2023-02-28T08:10:48;52.07;;;27.70;;
3433;SDS011;1730;41.932;25.548;2023-02-28T08:13:22;41.40;;;26.63;;
3433;SDS011;1730;41.932;25.548;2023-02-28T08:15:47;46.90;;;25.57;;
3433;SDS011;1730;41.932;25.548;2023-02-28T08:18:13;40.53;;;24.00;;
3433;SDS011;1730;41.932;25.548;2023-02-28T08:20:38;37.60;;;25.03;;
3433;SDS011;1730;41.932;25.548;2023-02-28T08:23:04;36.90;;;23.50;;
3433;SDS011;1730;41.932;25.548;2023-02-28T08:25:29;38.53;;;25.63;;
3433;SDS011;1730;41.932;25.548;2023-02-28T08:27:55;43.13;;;26.00;;
3433;SDS011;1730;41.932;25.548;2023-02-28T08:30:20;41.23;;;25.87;;
3433;SDS011;1730;41.932;25.548;2023-02-28T08:32:46;45.20;;;25.77;;
3433;SDS011;1730;41.932;25.548;2023-02-28T08:35:11;50.17;;;27.20;;
3433;SDS011;1730;41.932;25.548;2023-02-28T08:37:37;39.77;;;26.40;;
3433;SDS011;1730;41.932;25.548;2023-02-28T08:40:02;43.30;;;26.27;;
3433;SDS011;1730;41.932;25.548;2023-02-28T08:42:29;58.17;;;30.80;;
3433;SDS011;1730;41.932;25.548;2023-02-28T08:44:54;76.00;;;38.30;;
3433;SDS011;1730;41.932;25.548;2023-02-28T08:47:20;87.60;;;40.77;;
3433;SDS011;1730;41.932;25.548;2023-02-28T08:49:45;95.40;;;43.23;;
3433;SDS011;1730;41.932;25.548;2023-02-28T08:52:11;106.07;;;48.10;;
3433;SDS011;1730;41.932;25.548;2023-02-28T08:54:36;113.77;;;48.10;;
3433;SDS011;1730;41.932;25.548;2023-02-28T08:57:02;113.97;;;47.80;;
3433;SDS011;1730;41.932;25.548;2023-02-28T08:59:28;113.53;;;46.00;;
3433;SDS011;1730;41.932;25.548;2023-02-28T09:01:54;102.07;;;46.63;;
3433;SDS011;1730;41.932;25.548;2023-02-28T09:04:21;98.80;;;44.37;;
3433;SDS011;1730;41.932;25.548;2023-02-28T09:06:47;91.43;;;41.60;;
3433;SDS011;1730;41.932;25.548;2023-02-28T09:09:14;107.93;;;44.70;;
3433;SDS011;1730;41.932;25.548;2023-02-28T09:11:41;96.87;;;41.33;;
3433;SDS011;1730;41.932;25.548;2023-02-28T09:14:06;108.97;;;47.77;;
3433;SDS011;1730;41.932;25.548;2023-02-28T09:16:32;104.33;;;47.40;;
3433;SDS011;1730;41.932;25.548;2023-02-28T09:18:58;109.13;;;43.17;;
3433;SDS011;1730;41.932;25.548;2023-02-28T09:21:25;107.50;;;45.07;;
3433;SDS011;1730;41.932;25.548;2023-02-28T09:23:52;108.27;;;45.40;;
3433;SDS011;1730;41.932;25.548;2023-02-28T09:26:20;102.40;;;45.00;;
3433;SDS011;1730;41.932;25.548;2023-02-28T09:28:47;112.63;;;46.40;;
3433;SDS011;1730;41.932;25.548;2023-02-28T09:31:15;110.50;;;46.80;;
3433;SDS011;1730;41.932;25.548;2023-02-28T09:33:46;98.57;;;45.33;;
3433;SDS011;1730;41.932;25.548;2023-02-28T09:36:14;91.40;;;42.97;;
3433;SDS011;1730;41.932;25.548;2023-02-28T09:38:39;90.57;;;41.13;;
3433;SDS011;1730;41.932;25.548;2023-02-28T09:41:16;75.77;;;39.53;;
3433;SDS011;1730;41.932;25.548;2023-02-28T09:43:55;68.03;;;35.23;;
3433;SDS011;1730;41.932;25.548;2023-02-28T09:46:31;58.23;;;32.73;;
3433;SDS011;1730;41.932;25.548;2023-02-28T09:48:57;57.53;;;31.30;;
3433;SDS011;1730;41.932;25.548;2023-02-28T09:54:02;56.17;;;32.70;;
3433;SDS011;1730;41.932;25.548;2023-02-28T09:56:30;57.77;;;33.17;;
3433;SDS011;1730;41.932;25.548;2023-02-28T10:07:07;27.70;;;20.30;;
3433;SDS011;1730;41.932;25.548;2023-02-28T10:09:59;28.40;;;21.73;;
3433;SDS011;1730;41.932;25.548;2023-02-28T10:12:31;29.17;;;21.57;;
3433;SDS011;1730;41.932;25.548;2023-02-28T10:14:57;27.13;;;20.17;;
3433;SDS011;1730;41.932;25.548;2023-02-28T10:17:45;32.37;;;20.97;;
3433;SDS011;1730;41.932;25.548;2023-02-28T10:20:20;30.40;;;20.00;;
3433;SDS011;1730;41.932;25.548;2023-02-28T10:25:33;23.73;;;17.30;;
3433;SDS011;1730;41.932;25.548;2023-02-28T10:28:08;23.00;;;17.83;;
3433;SDS011;1730;41.932;25.548;2023-02-28T10:30:40;27.67;;;18.67;;
3433;SDS011;1730;41.932;25.548;2023-02-28T10:36:01;27.00;;;17.73;;
3433;SDS011;1730;41.932;25.548;2023-02-28T10:38:32;26.80;;;18.57;;
3433;SDS011;1730;41.932;25.548;2023-02-28T10:41:07;35.10;;;19.07;;
3433;SDS011;1730;41.932;25.548;2023-02-28T10:43:33;25.10;;;19.00;;
3433;SDS011;1730;41.932;25.548;2023-02-28T10:46:10;28.27;;;18.00;;
3433;SDS011;1730;41.932;25.548;2023-02-28T10:48:48;23.53;;;17.77;;
3433;SDS011;1730;41.932;25.548;2023-02-28T10:51:25;22.90;;;16.27;;
3433;SDS011;1730;41.932;25.548;2023-02-28T10:53:51;24.77;;;15.53;;
3433;SDS011;1730;41.932;25.548;2023-02-28T10:56:19;18.93;;;15.70;;
3433;SDS011;1730;41.932;25.548;2023-02-28T10:59:03;21.00;;;14.67;;
3433;SDS011;1730;41.932;25.548;2023-02-28T11:01:48;14.63;;;12.80;;
3433;SDS011;1730;41.932;25.548;2023-02-28T11:06:56;14.70;;;13.20;;
3433;SDS011;1730;41.932;25.548;2023-02-28T11:09:30;24.87;;;13.77;;
3433;SDS011;1730;41.932;25.548;2023-02-28T11:12:02;20.23;;;14.40;;
3433;SDS011;1730;41.932;25.548;2023-02-28T11:14:32;24.60;;;15.50;;
3433;SDS011;1730;41.932;25.548;2023-02-28T11:17:24;17.40;;;14.17;;
3433;SDS011;1730;41.932;25.548;2023-02-28T11:19:53;16.67;;;14.10;;
3433;SDS011;1730;41.932;25.548;2023-02-28T11:22:22;17.30;;;13.83;;
3433;SDS011;1730;41.932;25.548;2023-02-28T11:24:54;16.67;;;12.83;;
3433;SDS011;1730;41.932;25.548;2023-02-28T11:29:58;18.27;;;13.43;;
3433;SDS011;1730;41.932;25.548;2023-02-28T11:32:25;17.23;;;13.30;;
3433;SDS011;1730;41.932;25.548;2023-02-28T11:37:42;17.73;;;14.23;;
3433;SDS011;1730;41.932;25.548;2023-02-28T11:40:26;16.70;;;14.43;;
3433;SDS011;1730;41.932;25.548;2023-02-28T11:43:08;23.20;;;14.77;;
3433;SDS011;1730;41.932;25.548;2023-02-28T11:48:41;23.43;;;15.50;;
3433;SDS011;1730;41.932;25.548;2023-02-28T11:51:45;18.70;;;16.37;;
3433;SDS011;1730;41.932;25.548;2023-02-28T11:54:59;29.60;;;17.70;;
3433;SDS011;1730;41.932;25.548;2023-02-28T12:05:45;26.83;;;18.47;;
3433;SDS011;1730;41.932;25.548;2023-02-28T12:08:19;24.20;;;17.17;;
3433;SDS011;1730;41.932;25.548;2023-02-28T12:10:55;22.13;;;17.60;;
3433;SDS011;1730;41.932;25.548;2023-02-28T12:19:05;24.87;;;18.03;;
3433;SDS011;1730;41.932;25.548;2023-02-28T12:26:56;25.70;;;20.37;;
3433;SDS011;1730;41.932;25.548;2023-02-28T12:29:27;26.90;;;19.53;;
3433;SDS011;1730;41.932;25.548;2023-02-28T12:32:05;21.70;;;19.37;;
3433;SDS011;1730;41.932;25.548;2023-02-28T12:34:38;24.43;;;19.33;;
3433;SDS011;1730;41.932;25.548;2023-02-28T12:37:13;24.10;;;20.90;;
3433;SDS011;1730;41.932;25.548;2023-02-28T12:39:54;27.17;;;20.50;;
3433;SDS011;1730;41.932;25.548;2023-02-28T12:42:36;27.07;;;21.97;;
3433;SDS011;1730;41.932;25.548;2023-02-28T12:45:19;29.63;;;22.23;;
3433;SDS011;1730;41.932;25.548;2023-02-28T12:47:52;23.03;;;19.63;;
3433;SDS011;1730;41.932;25.548;2023-02-28T12:50:25;25.53;;;19.53;;
3433;SDS011;1730;41.932;25.548;2023-02-28T13:01:56;21.27;;;18.37;;
3433;SDS011;1730;41.932;25.548;2023-02-28T13:07:45;23.20;;;19.17;;
3433;SDS011;1730;41.932;25.548;2023-02-28T13:10:37;21.93;;;18.07;;
3433;SDS011;1730;41.932;25.548;2023-02-28T13:13:05;24.40;;;18.00;;
3433;SDS011;1730;41.932;25.548;2023-02-28T13:15:31;26.33;;;18.23;;
3433;SDS011;1730;41.932;25.548;2023-02-28T13:18:00;22.63;;;18.67;;
3433;SDS011;1730;41.932;25.548;2023-02-28T13:20:27;24.07;;;18.93;;
3433;SDS011;1730;41.932;25.548;2023-02-28T13:22:59;22.33;;;14.93;;
3433;SDS011;1730;41.932;25.548;2023-02-28T13:27:59;19.20;;;17.03;;
3433;SDS011;1730;41.932;25.548;2023-02-28T13:31:05;20.90;;;17.77;;
3433;SDS011;1730;41.932;25.548;2023-02-28T13:36:25;19.43;;;15.93;;
3433;SDS011;1730;41.932;25.548;2023-02-28T13:38:57;22.20;;;16.73;;
3433;SDS011;1730;41.932;25.548;2023-02-28T13:44:01;21.77;;;16.93;;
3433;SDS011;1730;41.932;25.548;2023-02-28T13:46:34;23.03;;;18.07;;
3433;SDS011;1730;41.932;25.548;2023-02-28T13:49:35;20.93;;;18.20;;
3433;SDS011;1730;41.932;25.548;2023-02-28T13:54:48;21.40;;;17.20;;
3433;SDS011;1730;41.932;25.548;2023-02-28T14:03:31;27.13;;;19.40;;
3433;SDS011;1730;41.932;25.548;2023-02-28T14:09:01;30.23;;;20.17;;
3433;SDS011;1730;41.932;25.548;2023-02-28T14:11:45;26.87;;;19.93;;
3433;SDS011;1730;41.932;25.548;2023-02-28T14:17:03;22.20;;;18.53;;
3433;SDS011;1730;41.932;25.548;2023-02-28T14:19:59;26.63;;;20.03;;
3433;SDS011;1730;41.932;25.548;2023-02-28T14:25:55;28.60;;;20.40;;
3433;SDS011;1730;41.932;25.548;2023-02-28T14:37:51;23.80;;;17.03;;
3433;SDS011;1730;41.932;25.548;2023-02-28T14:40:29;23.10;;;19.80;;
3433;SDS011;1730;41.932;25.548;2023-02-28T14:43:04;31.73;;;21.30;;
3433;SDS011;1730;41.932;25.548;2023-02-28T14:45:40;27.80;;;20.50;;
3433;SDS011;1730;41.932;25.548;2023-02-28T14:48:20;28.30;;;20.70;;
3433;SDS011;1730;41.932;25.548;2023-02-28T14:53:27;35.10;;;21.80;;
3433;SDS011;1730;41.932;25.548;2023-02-28T14:56:17;25.80;;;20.97;;
3433;SDS011;1730;41.932;25.548;2023-02-28T14:58:54;30.47;;;21.00;;
3433;SDS011;1730;41.932;25.548;2023-02-28T15:01:27;37.00;;;24.30;;
3433;SDS011;1730;41.932;25.548;2023-02-28T15:04:05;24.43;;;19.07;;
3433;SDS011;1730;41.932;25.548;2023-02-28T15:06:34;29.40;;;21.33;;
3433;SDS011;1730;41.932;25.548;2023-02-28T15:09:18;29.17;;;22.90;;
3433;SDS011;1730;41.932;25.548;2023-02-28T15:11:45;26.07;;;20.17;;
3433;SDS011;1730;41.932;25.548;2023-02-28T15:17:02;37.40;;;24.73;;
3433;SDS011;1730;41.932;25.548;2023-02-28T15:26:04;30.80;;;23.50;;
3433;SDS011;1730;41.932;25.548;2023-02-28T15:35:37;29.80;;;20.30;;
3433;SDS011;1730;41.932;25.548;2023-02-28T15:38:17;29.30;;;21.67;;
3433;SDS011;1730;41.932;25.548;2023-02-28T15:40:49;29.63;;;22.57;;
3433;SDS011;1730;41.932;25.548;2023-02-28T15:43:32;33.13;;;22.70;;
3433;SDS011;1730;41.932;25.548;2023-02-28T15:45:59;35.67;;;25.10;;
3433;SDS011;1730;41.932;25.548;2023-02-28T15:48:27;37.87;;;25.83;;
3433;SDS011;1730;41.932;25.548;2023-02-28T15:51:02;47.77;;;29.97;;
3433;SDS011;1730;41.932;25.548;2023-02-28T15:53:36;43.87;;;29.07;;
3433;SDS011;1730;41.932;25.548;2023-02-28T15:56:12;42.87;;;26.80;;
3433;SDS011;1730;41.932;25.548;2023-02-28T15:59:00;46.57;;;29.73;;
3433;SDS011;1730;41.932;25.548;2023-02-28T16:01:37;57.70;;;33.17;;
3433;SDS011;1730;41.932;25.548;2023-02-28T16:06:40;53.70;;;29.80;;
3433;SDS011;1730;41.932;25.548;2023-02-28T16:09:13;41.20;;;28.00;;
3433;SDS011;1730;41.932;25.548;2023-02-28T16:11:48;47.03;;;29.50;;
3433;SDS011;1730;41.932;25.548;2023-02-28T16:14:17;63.70;;;34.03;;
3433;SDS011;1730;41.932;25.548;2023-02-28T16:22:20;54.43;;;33.13;;
3433;SDS011;1730;41.932;25.548;2023-02-28T16:24:46;48.03;;;28.70;;
3433;SDS011;1730;41.932;25.548;2023-02-28T16:27:35;44.83;;;25.83;;
3433;SDS011;1730;41.932;25.548;2023-02-28T16:30:02;51.57;;;32.80;;
3433;SDS011;1730;41.932;25.548;2023-02-28T16:32:30;39.00;;;25.50;;
3433;SDS011;1730;41.932;25.548;2023-02-28T16:34:57;37.07;;;25.23;;
3433;SDS011;1730;41.932;25.548;2023-02-28T16:37:22;34.93;;;22.87;;
3433;SDS011;1730;41.932;25.548;2023-02-28T16:39:48;24.40;;;18.17;;
3433;SDS011;1730;41.932;25.548;2023-02-28T16:42:26;20.40;;;15.50;;
3433;SDS011;1730;41.932;25.548;2023-02-28T16:44:53;20.63;;;15.40;;
3433;SDS011;1730;41.932;25.548;2023-02-28T16:47:20;18.33;;;15.70;;
3433;SDS011;1730;41.932;25.548;2023-02-28T16:49:46;16.33;;;14.23;;
3433;SDS011;1730;41.932;25.548;2023-02-28T16:52:12;15.37;;;13.70;;
3433;SDS011;1730;41.932;25.548;2023-02-28T16:54:39;10.17;;;9.17;;
3433;SDS011;1730;41.932;25.548;2023-02-28T16:57:05;16.07;;;11.47;;
3433;SDS011;1730;41.932;25.548;2023-02-28T16:59:32;11.83;;;10.63;;
3433;SDS011;1730;41.932;25.548;2023-02-28T17:01:58;10.50;;;9.50;;
3433;SDS011;1730;41.932;25.548;2023-02-28T17:04:26;14.47;;;9.83;;
3433;SDS011;1730;41.932;25.548;2023-02-28T17:09:41;9.67;;;8.87;;
3433;SDS011;1730;41.932;25.548;2023-02-28T17:12:07;8.57;;;7.80;;
3433;SDS011;1730;41.932;25.548;2023-02-28T17:14:34;7.20;;;6.70;;
3433;SDS011;1730;41.932;25.548;2023-02-28T17:17:04;8.13;;;7.53;;
3433;SDS011;1730;41.932;25.548;2023-02-28T17:19:32;10.87;;;9.77;;
3433;SDS011;1730;41.932;25.548;2023-02-28T17:21:59;14.53;;;13.10;;
3433;SDS011;1730;41.932;25.548;2023-02-28T17:24:24;16.03;;;14.10;;